createdAt,value
2022-11-19T00:03:30.500Z,100832.66
2022-11-19T00:06:11.546Z,100830.09
2022-11-19T00:12:01.505Z,100831.84
2022-11-19T00:20:18.939Z,100840.47
2022-11-19T00:26:11.948Z,100838.78
2022-11-19T00:37:26.623Z,100857.84
2022-11-19T00:40:05.813Z,100857.84
2022-11-19T00:51:42.322Z,100867.06
2022-11-19T00:54:13.466Z,100864.28
2022-11-19T00:56:42.908Z,100862.34
2022-11-19T00:59:12.736Z,100857.84
2022-11-19T01:01:42.428Z,100866.47
2022-11-19T01:04:11.382Z,100869.84
2022-11-19T01:06:49.240Z,100870.59
2022-11-19T01:09:27.912Z,100868.63
2022-11-19T01:11:58.605Z,100874.69
2022-11-19T01:14:35.405Z,100877.28
2022-11-19T01:17:09.190Z,100884.44
2022-11-19T01:31:12.011Z,100891.25
2022-11-19T01:39:44.917Z,100887.84
2022-11-19T01:42:50.573Z,100888.94
2022-11-19T01:45:32.091Z,100895.63
2022-11-19T01:48:08.568Z,100892.25
2022-11-19T01:50:57.224Z,100891.88
2022-11-19T01:53:31.440Z,100893.72
2022-11-19T01:56:19.877Z,100894.28
2022-11-19T01:59:06.089Z,100894.28
2022-11-19T02:01:51.059Z,100898.91
2022-11-19T02:04:25.325Z,100905.47
2022-11-19T02:06:54.724Z,100903.66
2022-11-19T02:09:46.172Z,100911.44
2022-11-19T02:12:27.152Z,100906.56
2022-11-19T02:15:23.187Z,100910.69
2022-11-19T02:18:08.419Z,100913.13
2022-11-19T02:20:50.636Z,100914.91
2022-11-19T02:24:12.079Z,100922.91
2022-11-19T02:27:20.567Z,100908.91
2022-11-19T02:30:12.031Z,100909.38
2022-11-19T02:32:58.615Z,100912.41
2022-11-19T02:35:43.500Z,100928.66
2022-11-19T02:38:19.394Z,100942.31
2022-11-19T02:40:52.102Z,100932.31
2022-11-19T02:43:24.457Z,100937.47
2022-11-19T02:46:02.343Z,100938.19
2022-11-19T02:48:34.006Z,100942.25
2022-11-19T02:51:04.900Z,100931.94
2022-11-19T02:53:34.657Z,100934.59
2022-11-19T02:56:13.892Z,100939.09
2022-11-19T02:59:05.253Z,100939.94
2022-11-19T03:01:56.048Z,100937.50
2022-11-19T03:04:32.744Z,100931.28
2022-11-19T03:07:05.984Z,100936.75
2022-11-19T03:09:36.970Z,100941.25
2022-11-19T03:12:13.069Z,100945.72
2022-11-19T03:15:07.676Z,100948.28
2022-11-19T03:17:51.675Z,100948.72
2022-11-19T03:20:26.812Z,100939.13
2022-11-19T03:23:00.863Z,100937.41
2022-11-19T03:25:36.408Z,100932.31
2022-11-19T03:28:11.482Z,100935.94
2022-11-19T03:30:42.872Z,100946.84
2022-11-19T03:33:18.656Z,100944.50
2022-11-19T03:35:51.313Z,100933.41
2022-11-19T03:38:31.070Z,100936.44
2022-11-19T03:41:00.168Z,100941.00
2022-11-19T03:43:30.653Z,100936.84
2022-11-19T03:46:02.823Z,100941.22
2022-11-19T03:48:32.985Z,100945.69
2022-11-19T03:51:09.220Z,100928.13
2022-11-19T03:53:37.351Z,100936.25
2022-11-19T03:56:08.672Z,100935.50
2022-11-19T03:58:40.500Z,100925.78
2022-11-19T04:01:09.729Z,100920.47
2022-11-19T04:03:39.509Z,100929.31
2022-11-19T04:06:08.704Z,100931.13
2022-11-19T04:08:36.741Z,100926.00
2022-11-19T04:13:31.696Z,100937.97
2022-11-19T04:15:59.673Z,100939.78
2022-11-19T04:18:27.635Z,100943.59
2022-11-19T04:20:57.140Z,100953.63
2022-11-19T04:23:25.201Z,100953.97
2022-11-19T04:25:53.427Z,100964.84
2022-11-19T04:28:21.508Z,100960.78
2022-11-19T04:30:49.556Z,100966.97
2022-11-19T04:33:17.630Z,100971.34
2022-11-19T04:35:46.275Z,100968.69
2022-11-19T04:38:15.874Z,100974.41
2022-11-19T04:40:43.995Z,100959.06
2022-11-19T04:43:12.028Z,100969.72
2022-11-19T04:45:40.154Z,100980.19
2022-11-19T04:48:08.473Z,100973.25
2022-11-19T04:50:36.599Z,100966.34
2022-11-19T04:53:04.686Z,100976.22
2022-11-19T04:55:34.216Z,100974.00
2022-11-19T04:58:02.637Z,100985.75
2022-11-19T05:00:31.099Z,100977.09
2022-11-19T05:02:59.453Z,100986.16
2022-11-19T05:05:27.764Z,100985.41
2022-11-19T05:07:58.030Z,100985.53
2022-11-19T05:10:26.381Z,100986.56
2022-11-19T05:12:55.980Z,100996.38
2022-11-19T05:15:24.061Z,100999.25
2022-11-19T05:17:52.129Z,100997.97
2022-11-19T05:20:20.507Z,101000.28
2022-11-19T05:22:48.541Z,101006.13
2022-11-19T05:25:16.709Z,101003.22
2022-11-19T05:27:44.779Z,101002.88
2022-11-19T05:30:14.784Z,101005.94
2022-11-19T05:32:43.217Z,101013.94
2022-11-19T05:35:12.396Z,101011.47
2022-11-19T05:37:40.704Z,101013.38
2022-11-19T05:40:09.930Z,101011.56
2022-11-19T05:42:38.137Z,101002.63
2022-11-19T05:45:07.466Z,101003.47
2022-11-19T05:47:37.323Z,101008.59
2022-11-19T05:50:06.395Z,101010.19
2022-11-19T05:52:34.590Z,101006.50
2022-11-19T05:55:02.958Z,101006.56
2022-11-19T05:57:31.087Z,101011.72
2022-11-19T05:59:59.326Z,101008.84
2022-11-19T06:02:27.646Z,101008.63
2022-11-19T06:04:57.146Z,101017.28
2022-11-19T06:07:25.195Z,101006.63
2022-11-19T06:09:53.384Z,101007.59
2022-11-19T06:12:21.499Z,101017.28
2022-11-19T06:14:49.468Z,101014.19
2022-11-19T06:17:17.479Z,101013.72
2022-11-19T06:19:45.623Z,101017.53
2022-11-19T06:22:15.099Z,101015.09
2022-11-19T06:24:43.276Z,101007.50
2022-11-19T06:27:11.370Z,101013.03
2022-11-19T06:29:39.415Z,101007.91
2022-11-19T06:32:07.407Z,101024.28
2022-11-19T06:34:35.487Z,101023.72
2022-11-19T06:37:03.670Z,101042.34
2022-11-19T06:39:33.876Z,101046.06
2022-11-19T06:42:22.984Z,101044.25
2022-11-19T06:44:51.114Z,101038.28
2022-11-19T06:47:19.391Z,101050.72
2022-11-19T06:49:47.612Z,101040.81
2022-11-19T06:52:15.725Z,101052.13
2022-11-19T06:54:45.418Z,101054.78
2022-11-19T06:57:13.592Z,101060.84
2022-11-19T06:59:42.174Z,101058.31
2022-11-19T07:02:12.687Z,101069.78
2022-11-19T07:04:40.849Z,101071.41
2022-11-19T07:07:10.880Z,101074.09
2022-11-19T07:09:39.967Z,101072.34
2022-11-19T07:12:09.802Z,101065.31
2022-11-19T07:14:37.848Z,101063.53
2022-11-19T07:17:06.579Z,101060.84
2022-11-19T07:19:34.590Z,101056.38
2022-11-19T07:22:02.670Z,101064.06
2022-11-19T07:24:30.790Z,101058.75
2022-11-19T07:26:59.398Z,101062.38
2022-11-19T07:29:28.793Z,101059.81
2022-11-19T07:31:57.409Z,101060.84
2022-11-19T07:34:25.433Z,101065.31
2022-11-19T07:36:54.155Z,101062.31
2022-11-19T07:39:22.713Z,101053.69
2022-11-19T07:42:08.656Z,101054.81
2022-11-19T07:44:38.356Z,101055.13
2022-11-19T07:47:07.994Z,101059.47
2022-11-19T07:49:36.054Z,101062.91
2022-11-19T07:52:04.347Z,101072.69
2022-11-19T07:54:32.512Z,101084.09
2022-11-19T07:57:00.830Z,101087.78
2022-11-19T07:59:33.609Z,101091.22
2022-11-19T08:02:03.208Z,101093.88
2022-11-19T08:04:31.357Z,101093.75
2022-11-19T08:06:59.475Z,101092.63
2022-11-19T08:09:28.980Z,101104.00
2022-11-19T08:11:57.133Z,101099.66
2022-11-19T08:14:25.297Z,101092.50
2022-11-19T08:17:10.626Z,101096.91
2022-11-19T08:19:40.194Z,101095.94
2022-11-19T08:22:08.190Z,101102.13
2022-11-19T08:24:36.295Z,101110.78
2022-11-19T08:27:05.639Z,101107.16
2022-11-19T08:29:33.896Z,101109.81
2022-11-19T08:32:02.004Z,101117.69
2022-11-19T08:34:32.240Z,101114.91
2022-11-19T08:37:01.829Z,101102.50
2022-11-19T08:39:30.863Z,101106.56
2022-11-19T08:42:16.364Z,101107.97
2022-11-19T08:44:44.447Z,101114.53
2022-11-19T08:47:12.516Z,101112.03
2022-11-19T08:49:40.585Z,101103.22
2022-11-19T08:52:10.158Z,101109.47
2022-11-19T08:54:38.195Z,101101.63
2022-11-19T08:57:06.693Z,101101.56
2022-11-19T08:59:34.713Z,101102.66
2022-11-19T09:02:04.518Z,101101.94
2022-11-19T09:04:32.977Z,101082.53
2022-11-19T09:07:01.488Z,101081.69
2022-11-19T09:09:31.608Z,101079.47
2022-11-19T09:11:59.671Z,101086.91
2022-11-19T09:14:27.851Z,101079.44
2022-11-19T09:16:55.932Z,101076.56
2022-11-19T09:19:24.007Z,101076.44
2022-11-19T09:21:52.002Z,101078.91
2022-11-19T09:24:20.359Z,101075.28
2022-11-19T09:26:53.329Z,101080.59
2022-11-19T09:29:21.882Z,101078.59
2022-11-19T09:31:49.884Z,101082.94
2022-11-19T09:34:18.207Z,101070.34
2022-11-19T09:36:47.146Z,101070.03
2022-11-19T09:39:15.173Z,101083.78
2022-11-19T09:41:53.487Z,101095.00
2022-11-19T09:44:42.349Z,101089.09
2022-11-19T09:47:24.199Z,101094.84
2022-11-19T09:50:04.041Z,101108.28
2022-11-19T09:52:34.642Z,101098.88
2022-11-19T09:55:03.763Z,101102.69
2022-11-19T09:57:40.792Z,101101.53
2022-11-19T10:00:10.869Z,101105.13
2022-11-19T10:02:38.916Z,101096.66
2022-11-19T10:05:08.062Z,101103.13
2022-11-19T10:07:44.855Z,101106.41
2022-11-19T10:10:29.798Z,101109.00
2022-11-19T10:13:13.042Z,101102.56
2022-11-19T10:16:01.852Z,101099.66
2022-11-19T10:18:41.408Z,101111.59
2022-11-19T10:21:15.262Z,101111.13
2022-11-19T10:23:51.112Z,101129.13
2022-11-19T10:26:21.296Z,101133.91
2022-11-19T10:28:56.219Z,101132.97
2022-11-19T10:31:30.701Z,101129.72
2022-11-19T10:34:06.021Z,101130.59
2022-11-19T10:36:41.342Z,101134.41
2022-11-19T10:39:16.499Z,101130.03
2022-11-19T10:41:50.870Z,101119.72
2022-11-19T10:44:41.420Z,101119.91
2022-11-19T10:47:18.054Z,101106.88
2022-11-19T10:49:46.535Z,101108.97
2022-11-19T10:52:25.938Z,101108.94
2022-11-19T10:54:57.831Z,101099.19
2022-11-19T10:57:27.129Z,101104.31
2022-11-19T10:59:57.121Z,101099.31
2022-11-19T11:02:32.279Z,101085.56
2022-11-19T11:05:04.174Z,101088.47
2022-11-19T11:07:50.283Z,101075.53
2022-11-19T11:10:31.706Z,101073.91
2022-11-19T11:13:24.298Z,101075.00
2022-11-19T11:15:54.812Z,101075.94
2022-11-19T11:18:28.303Z,101068.81
2022-11-19T11:20:57.323Z,101064.00
2022-11-19T11:23:28.475Z,101063.72
2022-11-19T11:26:04.999Z,101062.56
2022-11-19T11:28:33.715Z,101045.81
2022-11-19T11:31:04.799Z,101045.19
2022-11-19T11:33:36.244Z,101028.72
2022-11-19T11:36:08.104Z,101022.84
2022-11-19T11:38:43.387Z,101029.44
2022-11-19T11:42:17.811Z,101027.47
2022-11-19T11:44:04.605Z,101032.09
2022-11-19T11:46:43.789Z,101023.34
2022-11-19T11:49:24.330Z,101029.72
2022-11-19T11:52:02.759Z,101034.53
2022-11-19T11:54:31.201Z,101030.69
2022-11-19T11:57:15.959Z,101038.50
2022-11-19T11:59:44.146Z,101028.25
2022-11-19T12:02:30.168Z,101030.25
2022-11-19T12:05:02.641Z,101028.41
2022-11-19T12:07:44.457Z,101037.34
2022-11-19T12:10:26.468Z,101033.06
2022-11-19T12:13:09.120Z,101041.88
2022-11-19T12:15:48.655Z,101031.22
2022-11-19T12:18:30.423Z,101033.63
2022-11-19T12:21:08.777Z,101019.91
2022-11-19T12:24:05.982Z,101013.44
2022-11-19T12:26:48.297Z,101012.88
2022-11-19T12:29:26.130Z,101015.56
2022-11-19T12:32:19.508Z,101007.91
2022-11-19T12:35:15.508Z,101011.44
2022-11-19T12:37:59.600Z,101014.97
2022-11-19T12:40:41.991Z,101010.88
2022-11-19T12:43:25.810Z,101002.97
2022-11-19T12:46:00.962Z,101000.69
2022-11-19T12:48:43.242Z,100997.84
2022-11-19T12:51:26.389Z,100989.22
2022-11-19T12:54:34.603Z,100989.75
2022-11-19T12:57:29.951Z,100992.44
2022-11-19T13:00:13.163Z,100991.31
2022-11-19T13:02:49.708Z,100991.16
2022-11-19T13:05:21.935Z,100991.06
2022-11-19T13:07:59.363Z,100984.25
2022-11-19T13:10:34.291Z,100982.53
2022-11-19T13:13:04.421Z,100974.34
2022-11-19T13:15:38.610Z,100977.88
2022-11-19T13:18:12.866Z,100976.31
2022-11-19T13:20:48.449Z,100974.47
2022-11-19T13:23:27.712Z,100967.28
2022-11-19T13:26:00.996Z,100960.31
2022-11-19T13:28:39.343Z,100961.75
2022-11-19T13:31:14.500Z,100955.19
2022-11-19T13:33:51.245Z,100945.72
2022-11-19T13:36:23.788Z,100941.31
2022-11-19T13:38:57.331Z,100939.22
2022-11-19T13:41:30.958Z,100936.69
2022-11-19T13:44:17.541Z,100919.41
2022-11-19T13:46:49.393Z,100921.25
2022-11-19T13:49:21.842Z,100911.22
2022-11-19T13:51:54.019Z,100905.84
2022-11-19T13:54:29.498Z,100903.84
2022-11-19T13:56:59.872Z,100899.75
2022-11-19T13:59:33.982Z,100895.59
2022-11-19T14:02:46.514Z,100891.53
2022-11-19T14:05:42.101Z,100888.28
2022-11-19T14:08:40.102Z,100902.75
2022-11-19T14:11:23.093Z,100892.94
2022-11-19T14:14:08.304Z,100891.09
2022-11-19T14:17:04.050Z,100888.56
2022-11-19T14:20:21.483Z,100887.16
2022-11-19T14:23:14.213Z,100878.13
2022-11-19T14:26:03.847Z,100883.22
2022-11-19T14:28:51.373Z,100885.22
2022-11-19T14:31:20.920Z,100882.66
2022-11-19T14:34:00.216Z,100882.66
2022-11-19T14:36:45.012Z,100882.38
2022-11-19T14:39:23.007Z,100882.66
2022-11-19T14:42:18.840Z,100884.66
2022-11-19T14:45:21.012Z,100876.47
2022-11-19T14:47:49.464Z,100862.91
2022-11-19T14:50:27.912Z,100872.25
2022-11-19T14:52:58.973Z,100863.88
2022-11-19T14:55:29.646Z,100868.56
2022-11-19T14:58:02.137Z,100866.53
2022-11-19T15:00:35.043Z,100868.06
2022-11-19T15:03:06.009Z,100852.47
2022-11-19T15:05:36.996Z,100850.63
2022-11-19T15:08:31.288Z,100854.91
2022-11-19T15:11:08.001Z,100852.13
2022-11-19T15:13:37.225Z,100851.00
2022-11-19T15:16:16.310Z,100857.25
2022-11-19T15:19:23.673Z,100854.72
2022-11-19T15:22:10.853Z,100856.59
2022-11-19T15:24:55.904Z,100858.13
2022-11-19T15:27:35.816Z,100862.41
2022-11-19T15:30:13.996Z,100846.56
2022-11-19T15:32:59.757Z,100853.34
2022-11-19T15:35:41.425Z,100851.09
2022-11-19T15:38:20.602Z,100854.06
2022-11-19T15:40:49.657Z,100855.16
2022-11-19T15:43:25.575Z,100855.59
2022-11-19T15:45:57.102Z,100848.25
2022-11-19T15:48:35.184Z,100846.00
2022-11-19T15:51:05.030Z,100840.19
2022-11-19T15:53:33.781Z,100840.63
2022-11-19T15:56:06.712Z,100836.38
2022-11-19T15:58:38.510Z,100834.09
2022-11-19T16:01:09.523Z,100836.50
2022-11-19T16:03:40.825Z,100833.09
2022-11-19T16:06:12.403Z,100836.94
2022-11-19T16:08:41.009Z,100833.81
2022-11-19T16:11:26.820Z,100835.06
2022-11-19T16:14:13.361Z,100829.13
2022-11-19T16:17:13.596Z,100823.31
2022-11-19T16:19:43.413Z,100831.78
2022-11-19T16:22:12.020Z,100826.00
2022-11-19T16:24:57.406Z,100824.16
2022-11-19T16:27:26.745Z,100824.72
2022-11-19T16:29:55.457Z,100821.34
2022-11-19T16:32:26.963Z,100816.22
2022-11-19T16:35:10.566Z,100818.22
2022-11-19T16:37:39.880Z,100809.72
2022-11-19T16:40:15.588Z,100809.16
2022-11-19T16:42:49.801Z,100802.22
2022-11-19T16:45:21.740Z,100802.91
2022-11-19T16:47:57.559Z,100786.25
2022-11-19T16:50:33.328Z,100795.28
2022-11-19T16:53:04.515Z,100791.88
2022-11-19T16:55:53.975Z,100790.44
2022-11-19T16:58:26.530Z,100792.38
2022-11-19T17:00:59.824Z,100791.81
2022-11-19T17:03:35.852Z,100789.13
2022-11-19T17:06:07.464Z,100788.41
2022-11-19T17:08:37.801Z,100782.22
2022-11-19T17:11:41.147Z,100790.50
2022-11-19T17:14:21.763Z,100785.44
2022-11-19T17:16:52.015Z,100777.66
2022-11-19T17:19:24.898Z,100778.25
2022-11-19T17:22:00.111Z,100772.75
2022-11-19T17:24:32.663Z,100777.25
2022-11-19T17:27:01.142Z,100782.47
2022-11-19T17:29:29.272Z,100777.25
2022-11-19T17:32:00.836Z,100772.88
2022-11-19T17:37:19.150Z,100766.69
2022-11-19T17:39:51.416Z,100760.47
2022-11-19T17:42:37.099Z,100760.34
2022-11-19T17:45:10.617Z,100758.91
2022-11-19T17:47:39.578Z,100755.38
2022-11-19T17:50:23.859Z,100751.84
2022-11-19T17:56:23.721Z,100745.50
2022-11-19T17:59:17.834Z,100752.56
2022-11-19T18:01:47.235Z,100740.00
2022-11-19T18:04:30.736Z,100747.91
2022-11-19T18:07:01.281Z,100741.72
2022-11-19T18:09:36.214Z,100745.94
2022-11-19T18:12:15.180Z,100737.91
2022-11-19T18:14:45.649Z,100738.88
2022-11-19T18:20:03.472Z,100732.53
2022-11-19T18:25:37.458Z,100733.28
2022-11-19T18:28:07.891Z,100728.75
2022-11-19T18:30:51.057Z,100734.97
2022-11-19T18:33:44.901Z,100729.72
2022-11-19T18:36:13.582Z,100736.66
2022-11-19T18:38:48.826Z,100735.94
2022-11-19T18:41:25.342Z,100729.72
2022-11-19T18:50:18.793Z,100726.59
2022-11-19T19:01:52.636Z,100714.63
2022-11-19T19:04:29.031Z,100711.94
2022-11-19T19:07:07.227Z,100714.50
2022-11-19T19:09:54.461Z,100710.84
2022-11-19T19:16:17.658Z,100712.53
2022-11-19T19:19:05.510Z,100711.25
2022-11-19T19:24:56.744Z,100715.19
2022-11-19T19:30:24.021Z,100711.53
2022-11-19T19:32:53.923Z,100720.31
2022-11-19T19:36:07.650Z,100704.34
2022-11-19T19:41:38.676Z,100710.53
2022-11-19T19:44:28.729Z,100707.84
2022-11-19T19:50:20.031Z,100711.38
2022-11-19T19:56:24.445Z,100694.19
2022-11-19T19:58:59.208Z,100708.28
2022-11-19T20:01:33.739Z,100697.56
2022-11-19T20:04:04.753Z,100698.44
2022-11-19T20:06:38.021Z,100692.22
2022-11-19T20:09:21.036Z,100695.88
2022-11-19T20:11:53.675Z,100690.53
2022-11-19T20:14:22.988Z,100688.00
2022-11-19T20:22:48.689Z,100671.31
2022-11-19T20:25:20.586Z,100670.75
2022-11-19T20:28:04.109Z,100676.00
2022-11-19T20:30:32.269Z,100670.75
2022-11-19T20:33:02.272Z,100666.38
2022-11-19T20:35:30.739Z,100666.53
2022-11-19T20:41:04.550Z,100656.38
2022-11-19T20:43:53.076Z,100651.00
2022-11-19T20:46:24.406Z,100640.56
2022-11-19T20:49:04.866Z,100643.09
2022-11-19T20:51:34.043Z,100636.19
2022-11-19T20:54:02.452Z,100629.13
2022-11-19T20:56:30.772Z,100629.13
2022-11-19T20:59:00.945Z,100623.88
2022-11-19T21:01:31.503Z,100617.56
2022-11-19T21:04:00.716Z,100626.47
2022-11-19T21:06:32.992Z,100607.81
2022-11-19T21:09:01.448Z,100600.63
2022-11-19T21:11:30.075Z,100604.88
2022-11-19T21:20:19.669Z,100599.34
2022-11-19T21:23:09.682Z,100589.63
2022-11-19T21:25:44.476Z,100597.41
2022-11-19T21:28:16.355Z,100577.91
2022-11-19T21:37:24.629Z,100581.59
2022-11-19T21:43:02.888Z,100563.38
2022-11-19T21:45:48.907Z,100568.59
2022-11-19T21:51:40.368Z,100564.94
2022-11-19T22:03:11.726Z,100553.25
2022-11-19T22:06:04.631Z,100544.91
2022-11-19T22:08:37.495Z,100539.56
2022-11-19T22:30:08.036Z,100519.97
2022-11-19T22:38:23.753Z,100500.78
2022-11-19T22:40:54.278Z,100497.09
2022-11-19T22:43:25.458Z,100498.94
2022-11-19T22:45:57.903Z,100493.59
2022-11-19T22:48:43.637Z,100487.38
2022-11-19T22:51:16.206Z,100483.03
2022-11-19T22:57:10.680Z,100473.28
2022-11-19T23:02:57.186Z,100465.81
2022-11-19T23:12:42.304Z,100459.75
2022-11-19T23:15:27.396Z,100454.13
2022-11-19T23:18:20.533Z,100448.19
2022-11-19T23:20:50.149Z,100443.41
2022-11-19T23:32:04.038Z,100426.75
2022-11-19T23:34:48.688Z,100421.91
2022-11-19T23:37:24.832Z,100432.50
2022-11-19T23:39:55.290Z,100422.47
2022-11-19T23:42:28.294Z,100417.69
2022-11-19T23:44:57.474Z,100417.69
2022-11-19T23:47:27.075Z,100415.69
2022-11-19T23:49:57.196Z,100413.72
2022-11-19T23:52:51.022Z,100411.75
2022-11-19T23:55:23.725Z,100408.06
2022-11-19T23:57:56.747Z,100412.06
